sensor_id;sensor_type;location;lat;lon;timestamp;temperature;humidity
20610;DHT22;10463;52.378;9.688;2022-09-21T00:02:43;27.60;28.50
20610;DHT22;10463;52.378;9.688;2022-09-21T00:05:28;27.60;28.50
20610;DHT22;10463;52.378;9.688;2022-09-21T00:08:13;27.60;28.50
20610;DHT22;10463;52.378;9.688;2022-09-21T00:11:00;27.60;28.50
20610;DHT22;10463;52.378;9.688;2022-09-21T00:13:46;27.60;28.50
20610;DHT22;10463;52.378;9.688;2022-09-21T00:16:31;27.60;28.50
20610;DHT22;10463;52.378;9.688;2022-09-21T00:19:16;27.60;28.50
20610;DHT22;10463;52.378;9.688;2022-09-21T00:22:01;27.60;28.60
20610;DHT22;10463;52.378;9.688;2022-09-21T00:24:45;27.60;28.50
20610;DHT22;10463;52.378;9.688;2022-09-21T00:27:32;27.60;28.50
20610;DHT22;10463;52.378;9.688;2022-09-21T00:30:17;27.60;28.50
20610;DHT22;10463;52.378;9.688;2022-09-21T00:33:02;27.60;28.50
20610;DHT22;10463;52.378;9.688;2022-09-21T00:35:47;27.60;28.50
20610;DHT22;10463;52.378;9.688;2022-09-21T00:38:32;27.60;28.50
20610;DHT22;10463;52.378;9.688;2022-09-21T00:41:17;27.50;28.40
20610;DHT22;10463;52.378;9.688;2022-09-21T00:44:26;27.60;28.50
20610;DHT22;10463;52.378;9.688;2022-09-21T00:47:15;27.60;28.50
20610;DHT22;10463;52.378;9.688;2022-09-21T00:50:03;27.50;28.50
20610;DHT22;10463;52.378;9.688;2022-09-21T00:52:52;27.50;28.50
20610;DHT22;10463;52.378;9.688;2022-09-21T00:55:40;27.50;28.50
20610;DHT22;10463;52.378;9.688;2022-09-21T00:58:29;27.50;28.50
20610;DHT22;10463;52.378;9.688;2022-09-21T01:01:16;27.50;28.50
20610;DHT22;10463;52.378;9.688;2022-09-21T01:04:01;27.50;28.50
20610;DHT22;10463;52.378;9.688;2022-09-21T01:06:47;27.50;28.70
20610;DHT22;10463;52.378;9.688;2022-09-21T01:09:32;27.50;28.50
20610;DHT22;10463;52.378;9.688;2022-09-21T01:12:32;27.50;28.50
20610;DHT22;10463;52.378;9.688;2022-09-21T01:15:31;27.50;28.50
20610;DHT22;10463;52.378;9.688;2022-09-21T01:18:24;27.50;28.50
20610;DHT22;10463;52.378;9.688;2022-09-21T01:21:20;27.50;28.50
20610;DHT22;10463;52.378;9.688;2022-09-21T01:24:41;27.40;28.50
20610;DHT22;10463;52.378;9.688;2022-09-21T01:27:52;27.40;28.50
20610;DHT22;10463;52.378;9.688;2022-09-21T01:30:42;27.40;28.50
20610;DHT22;10463;52.378;9.688;2022-09-21T01:33:32;27.40;28.50
20610;DHT22;10463;52.378;9.688;2022-09-21T01:36:24;27.40;28.60
20610;DHT22;10463;52.378;9.688;2022-09-21T01:39:13;27.40;28.60
20610;DHT22;10463;52.378;9.688;2022-09-21T01:42:01;27.40;28.50
20610;DHT22;10463;52.378;9.688;2022-09-21T01:44:48;27.40;28.50
20610;DHT22;10463;52.378;9.688;2022-09-21T01:47:36;27.40;28.50
20610;DHT22;10463;52.378;9.688;2022-09-21T01:50:24;27.40;28.40
20610;DHT22;10463;52.378;9.688;2022-09-21T01:53:15;27.40;28.40
20610;DHT22;10463;52.378;9.688;2022-09-21T01:56:06;27.40;28.30
20610;DHT22;10463;52.378;9.688;2022-09-21T01:59:02;27.40;28.70
20610;DHT22;10463;52.378;9.688;2022-09-21T02:01:53;27.30;28.10
20610;DHT22;10463;52.378;9.688;2022-09-21T02:04:41;27.30;28.10
20610;DHT22;10463;52.378;9.688;2022-09-21T02:07:26;27.30;28.00
20610;DHT22;10463;52.378;9.688;2022-09-21T02:10:17;27.30;28.00
20610;DHT22;10463;52.378;9.688;2022-09-21T02:13:06;27.20;27.90
20610;DHT22;10463;52.378;9.688;2022-09-21T02:16:06;27.20;27.90
20610;DHT22;10463;52.378;9.688;2022-09-21T02:19:11;27.20;27.80
20610;DHT22;10463;52.378;9.688;2022-09-21T02:22:04;27.20;27.80
20610;DHT22;10463;52.378;9.688;2022-09-21T02:24:54;27.20;27.80
20610;DHT22;10463;52.378;9.688;2022-09-21T02:27:50;27.10;27.80
20610;DHT22;10463;52.378;9.688;2022-09-21T02:30:37;27.10;27.80
20610;DHT22;10463;52.378;9.688;2022-09-21T02:33:30;27.10;27.80
20610;DHT22;10463;52.378;9.688;2022-09-21T02:36:23;27.10;27.80
20610;DHT22;10463;52.378;9.688;2022-09-21T02:39:17;27.00;27.80
20610;DHT22;10463;52.378;9.688;2022-09-21T02:42:06;27.00;27.80
20610;DHT22;10463;52.378;9.688;2022-09-21T02:44:57;27.00;27.80
20610;DHT22;10463;52.378;9.688;2022-09-21T02:47:49;27.00;27.80
20610;DHT22;10463;52.378;9.688;2022-09-21T02:50:40;27.00;27.80
20610;DHT22;10463;52.378;9.688;2022-09-21T02:53:30;26.90;27.80
20610;DHT22;10463;52.378;9.688;2022-09-21T02:56:18;26.90;27.80
20610;DHT22;10463;52.378;9.688;2022-09-21T02:59:05;26.80;27.80
20610;DHT22;10463;52.378;9.688;2022-09-21T03:01:51;26.80;27.80
20610;DHT22;10463;52.378;9.688;2022-09-21T03:04:36;26.80;27.80
20610;DHT22;10463;52.378;9.688;2022-09-21T03:07:20;26.80;27.70
20610;DHT22;10463;52.378;9.688;2022-09-21T03:10:06;26.80;27.70
20610;DHT22;10463;52.378;9.688;2022-09-21T03:12:57;26.80;27.70
20610;DHT22;10463;52.378;9.688;2022-09-21T03:15:45;26.70;27.70
20610;DHT22;10463;52.378;9.688;2022-09-21T03:18:31;26.70;27.70
20610;DHT22;10463;52.378;9.688;2022-09-21T03:21:16;26.70;27.70
20610;DHT22;10463;52.378;9.688;2022-09-21T03:24:01;26.60;27.60
20610;DHT22;10463;52.378;9.688;2022-09-21T03:26:46;26.60;27.70
20610;DHT22;10463;52.378;9.688;2022-09-21T03:29:33;26.60;27.60
20610;DHT22;10463;52.378;9.688;2022-09-21T03:32:17;26.50;27.60
20610;DHT22;10463;52.378;9.688;2022-09-21T03:35:02;26.50;27.60
20610;DHT22;10463;52.378;9.688;2022-09-21T03:37:49;26.50;27.60
20610;DHT22;10463;52.378;9.688;2022-09-21T03:40:34;26.50;27.60
20610;DHT22;10463;52.378;9.688;2022-09-21T03:43:19;26.50;27.60
20610;DHT22;10463;52.378;9.688;2022-09-21T03:46:05;26.40;27.50
20610;DHT22;10463;52.378;9.688;2022-09-21T03:48:50;26.40;27.50
20610;DHT22;10463;52.378;9.688;2022-09-21T03:51:34;26.40;27.50
20610;DHT22;10463;52.378;9.688;2022-09-21T03:54:19;26.30;28.00
20610;DHT22;10463;52.378;9.688;2022-09-21T03:57:04;26.30;27.50
20610;DHT22;10463;52.378;9.688;2022-09-21T03:59:49;26.30;27.50
20610;DHT22;10463;52.378;9.688;2022-09-21T04:02:36;26.30;27.50
20610;DHT22;10463;52.378;9.688;2022-09-21T04:05:21;26.30;27.50
20610;DHT22;10463;52.378;9.688;2022-09-21T04:08:06;26.20;27.50
20610;DHT22;10463;52.378;9.688;2022-09-21T04:10:51;26.20;27.50
20610;DHT22;10463;52.378;9.688;2022-09-21T04:13:37;26.20;27.50
20610;DHT22;10463;52.378;9.688;2022-09-21T04:16:22;26.20;27.40
20610;DHT22;10463;52.378;9.688;2022-09-21T04:19:09;26.20;27.40
20610;DHT22;10463;52.378;9.688;2022-09-21T04:21:54;26.10;27.40
20610;DHT22;10463;52.378;9.688;2022-09-21T04:24:39;26.10;27.40
20610;DHT22;10463;52.378;9.688;2022-09-21T04:27:24;26.10;27.30
20610;DHT22;10463;52.378;9.688;2022-09-21T04:30:11;26.00;27.30
20610;DHT22;10463;52.378;9.688;2022-09-21T04:32:56;26.00;27.30
20610;DHT22;10463;52.378;9.688;2022-09-21T04:35:42;26.00;27.30
20610;DHT22;10463;52.378;9.688;2022-09-21T04:38:27;26.00;27.30
20610;DHT22;10463;52.378;9.688;2022-09-21T04:41:12;26.00;27.40
20610;DHT22;10463;52.378;9.688;2022-09-21T04:43:57;25.90;27.30
20610;DHT22;10463;52.378;9.688;2022-09-21T04:46:42;25.90;27.30
20610;DHT22;10463;52.378;9.688;2022-09-21T04:49:27;25.90;27.40
20610;DHT22;10463;52.378;9.688;2022-09-21T04:52:13;25.90;27.40
20610;DHT22;10463;52.378;9.688;2022-09-21T04:54:57;25.80;27.30
20610;DHT22;10463;52.378;9.688;2022-09-21T04:57:43;25.80;27.40
20610;DHT22;10463;52.378;9.688;2022-09-21T05:00:27;25.80;27.40
20610;DHT22;10463;52.378;9.688;2022-09-21T05:03:12;25.80;27.40
20610;DHT22;10463;52.378;9.688;2022-09-21T05:05:57;25.80;27.40
20610;DHT22;10463;52.378;9.688;2022-09-21T05:08:43;25.70;27.40
20610;DHT22;10463;52.378;9.688;2022-09-21T05:11:47;25.70;27.40
20610;DHT22;10463;52.378;9.688;2022-09-21T05:14:31;25.70;27.40
20610;DHT22;10463;52.378;9.688;2022-09-21T05:17:16;25.70;27.40
20610;DHT22;10463;52.378;9.688;2022-09-21T05:20:01;25.70;27.40
20610;DHT22;10463;52.378;9.688;2022-09-21T05:22:46;25.60;27.40
20610;DHT22;10463;52.378;9.688;2022-09-21T05:25:32;25.60;27.40
20610;DHT22;10463;52.378;9.688;2022-09-21T05:28:18;25.60;27.40
20610;DHT22;10463;52.378;9.688;2022-09-21T05:31:14;25.50;27.30
20610;DHT22;10463;52.378;9.688;2022-09-21T05:34:15;25.50;27.30
20610;DHT22;10463;52.378;9.688;2022-09-21T05:37:09;25.50;27.30
20610;DHT22;10463;52.378;9.688;2022-09-21T05:39:55;25.50;27.30
20610;DHT22;10463;52.378;9.688;2022-09-21T05:42:43;25.50;27.30
20610;DHT22;10463;52.378;9.688;2022-09-21T05:45:29;25.50;27.30
20610;DHT22;10463;52.378;9.688;2022-09-21T05:48:17;25.50;27.40
20610;DHT22;10463;52.378;9.688;2022-09-21T05:51:11;25.40;27.30
20610;DHT22;10463;52.378;9.688;2022-09-21T05:54:03;25.40;27.30
20610;DHT22;10463;52.378;9.688;2022-09-21T05:57:00;25.40;27.40
20610;DHT22;10463;52.378;9.688;2022-09-21T06:00:00;25.40;27.40
20610;DHT22;10463;52.378;9.688;2022-09-21T06:03:27;25.30;27.30
20610;DHT22;10463;52.378;9.688;2022-09-21T06:06:13;25.40;27.40
20610;DHT22;10463;52.378;9.688;2022-09-21T06:08:57;25.30;27.30
20610;DHT22;10463;52.378;9.688;2022-09-21T06:11:42;25.30;27.40
20610;DHT22;10463;52.378;9.688;2022-09-21T06:14:27;25.20;27.30
20610;DHT22;10463;52.378;9.688;2022-09-21T06:17:13;25.20;27.40
20610;DHT22;10463;52.378;9.688;2022-09-21T06:19:58;25.20;27.40
20610;DHT22;10463;52.378;9.688;2022-09-21T06:22:43;25.20;27.40
20610;DHT22;10463;52.378;9.688;2022-09-21T06:25:28;25.20;27.40
20610;DHT22;10463;52.378;9.688;2022-09-21T06:28:12;25.20;27.40
20610;DHT22;10463;52.378;9.688;2022-09-21T06:30:57;25.20;27.40
20610;DHT22;10463;52.378;9.688;2022-09-21T06:33:44;25.20;27.40
20610;DHT22;10463;52.378;9.688;2022-09-21T06:36:28;25.20;27.40
20610;DHT22;10463;52.378;9.688;2022-09-21T06:39:13;25.10;27.40
20610;DHT22;10463;52.378;9.688;2022-09-21T06:41:58;25.10;27.40
20610;DHT22;10463;52.378;9.688;2022-09-21T06:44:43;25.10;27.40
20610;DHT22;10463;52.378;9.688;2022-09-21T06:47:28;25.10;27.50
20610;DHT22;10463;52.378;9.688;2022-09-21T06:50:14;25.10;27.50
20610;DHT22;10463;52.378;9.688;2022-09-21T06:53:00;25.10;27.50
20610;DHT22;10463;52.378;9.688;2022-09-21T06:55:45;25.10;27.50
20610;DHT22;10463;52.378;9.688;2022-09-21T06:58:31;25.10;27.50
20610;DHT22;10463;52.378;9.688;2022-09-21T07:01:19;25.00;27.60
20610;DHT22;10463;52.378;9.688;2022-09-21T07:04:04;25.10;27.60
20610;DHT22;10463;52.378;9.688;2022-09-21T07:06:51;25.00;27.60
20610;DHT22;10463;52.378;9.688;2022-09-21T07:09:36;25.00;27.70
20610;DHT22;10463;52.378;9.688;2022-09-21T07:12:21;25.10;27.70
20610;DHT22;10463;52.378;9.688;2022-09-21T07:15:08;25.00;27.70
20610;DHT22;10463;52.378;9.688;2022-09-21T07:17:53;25.00;27.70
20610;DHT22;10463;52.378;9.688;2022-09-21T07:20:38;25.00;27.70
20610;DHT22;10463;52.378;9.688;2022-09-21T07:23:25;25.00;27.70
20610;DHT22;10463;52.378;9.688;2022-09-21T07:26:12;25.00;27.70
20610;DHT22;10463;52.378;9.688;2022-09-21T07:28:57;25.00;27.80
20610;DHT22;10463;52.378;9.688;2022-09-21T07:31:42;25.00;27.80
20610;DHT22;10463;52.378;9.688;2022-09-21T07:34:28;25.00;27.80
20610;DHT22;10463;52.378;9.688;2022-09-21T07:37:13;25.00;28.40
20610;DHT22;10463;52.378;9.688;2022-09-21T07:40:00;25.00;27.90
20610;DHT22;10463;52.378;9.688;2022-09-21T07:42:49;25.00;27.90
20610;DHT22;10463;52.378;9.688;2022-09-21T07:45:33;25.00;28.50
20610;DHT22;10463;52.378;9.688;2022-09-21T07:48:18;25.00;27.90
20610;DHT22;10463;52.378;9.688;2022-09-21T07:51:04;25.00;27.90
20610;DHT22;10463;52.378;9.688;2022-09-21T07:53:54;25.00;27.90
20610;DHT22;10463;52.378;9.688;2022-09-21T07:56:44;25.10;28.00
20610;DHT22;10463;52.378;9.688;2022-09-21T07:59:48;25.00;28.00
20610;DHT22;10463;52.378;9.688;2022-09-21T08:02:33;25.10;28.00
20610;DHT22;10463;52.378;9.688;2022-09-21T08:05:18;25.00;28.00
20610;DHT22;10463;52.378;9.688;2022-09-21T08:08:03;25.10;28.00
20610;DHT22;10463;52.378;9.688;2022-09-21T08:10:47;25.00;27.90
20610;DHT22;10463;52.378;9.688;2022-09-21T08:13:33;25.10;28.00
20610;DHT22;10463;52.378;9.688;2022-09-21T08:16:18;25.10;28.00
20610;DHT22;10463;52.378;9.688;2022-09-21T08:19:04;25.00;28.00
20610;DHT22;10463;52.378;9.688;2022-09-21T08:21:48;25.00;28.00
20610;DHT22;10463;52.378;9.688;2022-09-21T08:24:34;25.10;28.10
20610;DHT22;10463;52.378;9.688;2022-09-21T08:27:21;25.10;28.10
20610;DHT22;10463;52.378;9.688;2022-09-21T08:30:09;25.10;28.10
20610;DHT22;10463;52.378;9.688;2022-09-21T08:32:57;25.10;28.20
20610;DHT22;10463;52.378;9.688;2022-09-21T08:35:41;25.10;28.20
20610;DHT22;10463;52.378;9.688;2022-09-21T08:38:30;25.10;28.20
20610;DHT22;10463;52.378;9.688;2022-09-21T08:41:19;25.20;28.30
20610;DHT22;10463;52.378;9.688;2022-09-21T08:44:12;25.20;28.30
20610;DHT22;10463;52.378;9.688;2022-09-21T08:47:05;25.20;28.30
20610;DHT22;10463;52.378;9.688;2022-09-21T08:49:57;25.20;28.30
20610;DHT22;10463;52.378;9.688;2022-09-21T08:52:43;25.30;28.90
20610;DHT22;10463;52.378;9.688;2022-09-21T08:55:27;25.30;28.30
20610;DHT22;10463;52.378;9.688;2022-09-21T08:58:21;25.30;28.30
20610;DHT22;10463;52.378;9.688;2022-09-21T09:01:36;25.30;28.30
20610;DHT22;10463;52.378;9.688;2022-09-21T09:04:42;25.30;28.40
20610;DHT22;10463;52.378;9.688;2022-09-21T09:08:03;25.40;28.40
20610;DHT22;10463;52.378;9.688;2022-09-21T09:11:04;25.40;29.00
20610;DHT22;10463;52.378;9.688;2022-09-21T09:14:19;25.40;28.40
20610;DHT22;10463;52.378;9.688;2022-09-21T09:17:26;25.40;28.50
20610;DHT22;10463;52.378;9.688;2022-09-21T09:20:19;25.50;28.50
20610;DHT22;10463;52.378;9.688;2022-09-21T09:23:12;25.50;28.40
20610;DHT22;10463;52.378;9.688;2022-09-21T09:26:04;25.50;29.00
20610;DHT22;10463;52.378;9.688;2022-09-21T09:28:53;25.50;28.40
20610;DHT22;10463;52.378;9.688;2022-09-21T09:31:39;25.60;28.50
20610;DHT22;10463;52.378;9.688;2022-09-21T09:34:32;25.60;28.40
20610;DHT22;10463;52.378;9.688;2022-09-21T09:37:24;25.60;28.40
20610;DHT22;10463;52.378;9.688;2022-09-21T09:40:12;25.70;28.40
20610;DHT22;10463;52.378;9.688;2022-09-21T09:43:04;25.70;28.40
20610;DHT22;10463;52.378;9.688;2022-09-21T09:46:01;25.70;28.40
20610;DHT22;10463;52.378;9.688;2022-09-21T09:49:13;25.70;28.40
20610;DHT22;10463;52.378;9.688;2022-09-21T09:51:59;25.80;28.50
20610;DHT22;10463;52.378;9.688;2022-09-21T09:54:46;25.80;28.40
20610;DHT22;10463;52.378;9.688;2022-09-21T09:57:32;25.80;28.90
20610;DHT22;10463;52.378;9.688;2022-09-21T10:00:19;25.80;28.40
20610;DHT22;10463;52.378;9.688;2022-09-21T10:03:15;25.80;28.40
20610;DHT22;10463;52.378;9.688;2022-09-21T10:06:01;25.90;28.40
20610;DHT22;10463;52.378;9.688;2022-09-21T10:08:46;25.90;28.40
20610;DHT22;10463;52.378;9.688;2022-09-21T10:11:37;26.00;28.50
20610;DHT22;10463;52.378;9.688;2022-09-21T10:14:24;26.00;28.50
20610;DHT22;10463;52.378;9.688;2022-09-21T10:17:16;26.00;28.50
20610;DHT22;10463;52.378;9.688;2022-09-21T10:20:02;26.00;28.50
20610;DHT22;10463;52.378;9.688;2022-09-21T10:22:53;26.10;28.50
20610;DHT22;10463;52.378;9.688;2022-09-21T10:25:41;26.10;28.50
20610;DHT22;10463;52.378;9.688;2022-09-21T10:28:28;26.10;28.50
20610;DHT22;10463;52.378;9.688;2022-09-21T10:31:18;26.20;28.50
20610;DHT22;10463;52.378;9.688;2022-09-21T10:34:13;26.20;28.50
20610;DHT22;10463;52.378;9.688;2022-09-21T10:36:59;26.20;28.50
20610;DHT22;10463;52.378;9.688;2022-09-21T10:39:45;26.20;28.50
20610;DHT22;10463;52.378;9.688;2022-09-21T10:42:34;26.20;28.40
20610;DHT22;10463;52.378;9.688;2022-09-21T10:45:24;26.30;28.50
20610;DHT22;10463;52.378;9.688;2022-09-21T10:48:13;26.30;28.50
20610;DHT22;10463;52.378;9.688;2022-09-21T10:51:00;26.30;28.50
20610;DHT22;10463;52.378;9.688;2022-09-21T10:53:47;26.40;28.50
20610;DHT22;10463;52.378;9.688;2022-09-21T10:56:35;26.40;28.50
20610;DHT22;10463;52.378;9.688;2022-09-21T10:59:24;26.40;28.50
20610;DHT22;10463;52.378;9.688;2022-09-21T11:02:33;26.50;28.50
20610;DHT22;10463;52.378;9.688;2022-09-21T11:05:23;26.50;28.50
20610;DHT22;10463;52.378;9.688;2022-09-21T11:08:14;26.60;28.50
20610;DHT22;10463;52.378;9.688;2022-09-21T11:11:15;26.60;28.50
20610;DHT22;10463;52.378;9.688;2022-09-21T11:14:12;26.60;28.50
20610;DHT22;10463;52.378;9.688;2022-09-21T11:17:06;26.70;28.50
20610;DHT22;10463;52.378;9.688;2022-09-21T11:20:02;26.70;28.50
20610;DHT22;10463;52.378;9.688;2022-09-21T11:22:58;26.70;28.50
20610;DHT22;10463;52.378;9.688;2022-09-21T11:25:53;26.80;28.50
20610;DHT22;10463;52.378;9.688;2022-09-21T11:28:48;26.80;28.50
20610;DHT22;10463;52.378;9.688;2022-09-21T11:31:47;26.90;28.50
20610;DHT22;10463;52.378;9.688;2022-09-21T11:35:01;26.90;28.50
20610;DHT22;10463;52.378;9.688;2022-09-21T11:37:59;26.90;28.50
20610;DHT22;10463;52.378;9.688;2022-09-21T11:41:05;27.00;28.50
20610;DHT22;10463;52.378;9.688;2022-09-21T11:44:17;27.00;28.50
20610;DHT22;10463;52.378;9.688;2022-09-21T11:47:15;27.00;28.50
20610;DHT22;10463;52.378;9.688;2022-09-21T11:53:28;27.10;28.50
20610;DHT22;10463;52.378;9.688;2022-09-21T11:56:35;27.20;28.50
20610;DHT22;10463;52.378;9.688;2022-09-21T11:59:51;27.20;28.50
20610;DHT22;10463;52.378;9.688;2022-09-21T12:06:39;27.30;28.40
20610;DHT22;10463;52.378;9.688;2022-09-21T12:10:11;27.40;28.50
20610;DHT22;10463;52.378;9.688;2022-09-21T12:13:05;27.40;28.40
20610;DHT22;10463;52.378;9.688;2022-09-21T12:16:00;27.50;28.40
20610;DHT22;10463;52.378;9.688;2022-09-21T12:18:54;27.50;28.40
20610;DHT22;10463;52.378;9.688;2022-09-21T12:21:46;27.60;28.50
20610;DHT22;10463;52.378;9.688;2022-09-21T12:24:39;27.60;29.00
20610;DHT22;10463;52.378;9.688;2022-09-21T12:27:31;27.70;28.40
20610;DHT22;10463;52.378;9.688;2022-09-21T12:30:20;27.70;28.40
20610;DHT22;10463;52.378;9.688;2022-09-21T12:33:13;27.80;28.40
20610;DHT22;10463;52.378;9.688;2022-09-21T12:36:04;27.80;28.40
20610;DHT22;10463;52.378;9.688;2022-09-21T12:39:00;27.80;28.40
20610;DHT22;10463;52.378;9.688;2022-09-21T12:41:52;27.90;28.40
20610;DHT22;10463;52.378;9.688;2022-09-21T12:44:43;27.90;28.30
20610;DHT22;10463;52.378;9.688;2022-09-21T12:47:47;28.00;28.40
20610;DHT22;10463;52.378;9.688;2022-09-21T12:50:39;28.00;28.30
20610;DHT22;10463;52.378;9.688;2022-09-21T12:53:31;28.10;28.40
20610;DHT22;10463;52.378;9.688;2022-09-21T12:56:30;28.10;28.40
20610;DHT22;10463;52.378;9.688;2022-09-21T12:59:30;28.10;28.40
20610;DHT22;10463;52.378;9.688;2022-09-21T13:02:22;28.20;28.40
20610;DHT22;10463;52.378;9.688;2022-09-21T13:05:14;28.20;28.40
20610;DHT22;10463;52.378;9.688;2022-09-21T13:08:11;28.30;28.50
20610;DHT22;10463;52.378;9.688;2022-09-21T13:11:00;28.30;28.50
20610;DHT22;10463;52.378;9.688;2022-09-21T13:13:53;28.40;28.50
20610;DHT22;10463;52.378;9.688;2022-09-21T13:16:40;28.40;28.40
20610;DHT22;10463;52.378;9.688;2022-09-21T13:19:27;28.50;28.40
20610;DHT22;10463;52.378;9.688;2022-09-21T13:22:20;28.50;28.30
20610;DHT22;10463;52.378;9.688;2022-09-21T13:25:18;28.50;28.30
20610;DHT22;10463;52.378;9.688;2022-09-21T13:28:19;28.60;28.30
20610;DHT22;10463;52.378;9.688;2022-09-21T13:31:53;28.70;28.20
20610;DHT22;10463;52.378;9.688;2022-09-21T13:34:42;28.70;28.10
20610;DHT22;10463;52.378;9.688;2022-09-21T13:37:29;28.80;28.10
20610;DHT22;10463;52.378;9.688;2022-09-21T13:40:48;28.90;28.60
20610;DHT22;10463;52.378;9.688;2022-09-21T13:44:02;28.90;27.90
20610;DHT22;10463;52.378;9.688;2022-09-21T13:46:54;29.00;27.90
20610;DHT22;10463;52.378;9.688;2022-09-21T13:49:47;29.00;28.00
20610;DHT22;10463;52.378;9.688;2022-09-21T13:52:38;29.00;27.80
20610;DHT22;10463;52.378;9.688;2022-09-21T13:55:30;29.10;27.80
20610;DHT22;10463;52.378;9.688;2022-09-21T13:58:20;29.10;27.80
20610;DHT22;10463;52.378;9.688;2022-09-21T14:01:15;29.20;27.80
20610;DHT22;10463;52.378;9.688;2022-09-21T14:04:13;29.20;27.80
20610;DHT22;10463;52.378;9.688;2022-09-21T14:07:04;29.20;27.80
20610;DHT22;10463;52.378;9.688;2022-09-21T14:09:55;29.30;27.80
20610;DHT22;10463;52.378;9.688;2022-09-21T14:12:42;29.30;27.80
20610;DHT22;10463;52.378;9.688;2022-09-21T14:15:37;29.30;27.70
20610;DHT22;10463;52.378;9.688;2022-09-21T14:18:36;29.40;27.70
20610;DHT22;10463;52.378;9.688;2022-09-21T14:21:23;29.40;27.70
20610;DHT22;10463;52.378;9.688;2022-09-21T14:24:20;29.40;27.70
20610;DHT22;10463;52.378;9.688;2022-09-21T14:27:14;29.50;27.70
20610;DHT22;10463;52.378;9.688;2022-09-21T14:30:03;29.50;27.70
20610;DHT22;10463;52.378;9.688;2022-09-21T14:32:55;29.50;27.70
20610;DHT22;10463;52.378;9.688;2022-09-21T14:35:46;29.60;27.60
20610;DHT22;10463;52.378;9.688;2022-09-21T14:38:40;29.60;27.50
20610;DHT22;10463;52.378;9.688;2022-09-21T14:41:31;29.70;27.60
20610;DHT22;10463;52.378;9.688;2022-09-21T14:44:24;29.70;27.50
20610;DHT22;10463;52.378;9.688;2022-09-21T14:47:29;29.80;27.50
20610;DHT22;10463;52.378;9.688;2022-09-21T14:50:31;29.80;27.40
20610;DHT22;10463;52.378;9.688;2022-09-21T14:57:24;30.00;27.20
20610;DHT22;10463;52.378;9.688;2022-09-21T15:00:20;30.00;27.20
20610;DHT22;10463;52.378;9.688;2022-09-21T15:10:23;30.20;27.10
20610;DHT22;10463;52.378;9.688;2022-09-21T15:13:51;30.20;27.00
20610;DHT22;10463;52.378;9.688;2022-09-21T15:16:41;30.30;26.90
20610;DHT22;10463;52.378;9.688;2022-09-21T15:19:28;30.30;26.90
20610;DHT22;10463;52.378;9.688;2022-09-21T15:22:20;30.30;26.80
20610;DHT22;10463;52.378;9.688;2022-09-21T15:25:11;30.40;26.90
20610;DHT22;10463;52.378;9.688;2022-09-21T15:27:57;30.40;26.80
20610;DHT22;10463;52.378;9.688;2022-09-21T15:30:44;30.50;26.70
20610;DHT22;10463;52.378;9.688;2022-09-21T15:33:29;30.50;26.70
20610;DHT22;10463;52.378;9.688;2022-09-21T15:36:20;30.50;26.60
20610;DHT22;10463;52.378;9.688;2022-09-21T15:39:18;30.60;26.60
20610;DHT22;10463;52.378;9.688;2022-09-21T15:42:19;30.60;26.50
20610;DHT22;10463;52.378;9.688;2022-09-21T15:45:15;30.60;26.40
20610;DHT22;10463;52.378;9.688;2022-09-21T15:48:05;30.60;26.40
20610;DHT22;10463;52.378;9.688;2022-09-21T15:51:00;30.60;26.40
20610;DHT22;10463;52.378;9.688;2022-09-21T15:53:51;30.60;26.40
20610;DHT22;10463;52.378;9.688;2022-09-21T15:56:42;30.60;26.40
20610;DHT22;10463;52.378;9.688;2022-09-21T15:59:27;30.60;26.40
20610;DHT22;10463;52.378;9.688;2022-09-21T16:02:20;30.60;26.40
20610;DHT22;10463;52.378;9.688;2022-09-21T16:05:13;30.60;26.40
20610;DHT22;10463;52.378;9.688;2022-09-21T16:08:13;30.60;26.40
20610;DHT22;10463;52.378;9.688;2022-09-21T16:11:18;30.60;26.40
20610;DHT22;10463;52.378;9.688;2022-09-21T16:14:09;30.60;26.30
20610;DHT22;10463;52.378;9.688;2022-09-21T16:17:23;30.50;26.30
20610;DHT22;10463;52.378;9.688;2022-09-21T16:20:19;30.50;26.30
20610;DHT22;10463;52.378;9.688;2022-09-21T16:23:13;30.50;26.30
20610;DHT22;10463;52.378;9.688;2022-09-21T16:26:00;30.50;26.40
20610;DHT22;10463;52.378;9.688;2022-09-21T16:28:46;30.50;26.40
20610;DHT22;10463;52.378;9.688;2022-09-21T16:31:32;30.50;26.30
20610;DHT22;10463;52.378;9.688;2022-09-21T16:34:28;30.50;26.40
20610;DHT22;10463;52.378;9.688;2022-09-21T16:37:26;30.40;26.30
20610;DHT22;10463;52.378;9.688;2022-09-21T16:40:12;30.40;26.30
20610;DHT22;10463;52.378;9.688;2022-09-21T16:42:57;30.40;26.30
20610;DHT22;10463;52.378;9.688;2022-09-21T16:45:43;30.40;26.30
20610;DHT22;10463;52.378;9.688;2022-09-21T16:48:28;30.40;26.30
20610;DHT22;10463;52.378;9.688;2022-09-21T16:51:15;30.40;26.30
20610;DHT22;10463;52.378;9.688;2022-09-21T16:54:09;30.30;26.30
20610;DHT22;10463;52.378;9.688;2022-09-21T16:56:57;30.30;26.90
20610;DHT22;10463;52.378;9.688;2022-09-21T16:59:43;30.30;26.40
20610;DHT22;10463;52.378;9.688;2022-09-21T17:02:27;30.30;26.50
20610;DHT22;10463;52.378;9.688;2022-09-21T17:05:12;30.30;26.50
20610;DHT22;10463;52.378;9.688;2022-09-21T17:08:02;30.20;26.50
20610;DHT22;10463;52.378;9.688;2022-09-21T17:10:49;30.20;26.50
20610;DHT22;10463;52.378;9.688;2022-09-21T17:13:33;30.20;26.50
20610;DHT22;10463;52.378;9.688;2022-09-21T17:16:19;30.20;26.50
20610;DHT22;10463;52.378;9.688;2022-09-21T17:19:03;30.10;26.50
20610;DHT22;10463;52.378;9.688;2022-09-21T17:21:48;30.10;26.50
20610;DHT22;10463;52.378;9.688;2022-09-21T17:24:33;30.10;26.60
20610;DHT22;10463;52.378;9.688;2022-09-21T17:27:25;30.10;26.70
20610;DHT22;10463;52.378;9.688;2022-09-21T17:30:12;30.10;26.70
20610;DHT22;10463;52.378;9.688;2022-09-21T17:32:57;30.10;26.70
20610;DHT22;10463;52.378;9.688;2022-09-21T17:35:42;30.10;26.70
20610;DHT22;10463;52.378;9.688;2022-09-21T17:38:27;30.00;26.60
20610;DHT22;10463;52.378;9.688;2022-09-21T17:41:19;30.00;26.70
20610;DHT22;10463;52.378;9.688;2022-09-21T17:44:13;30.00;26.70
20610;DHT22;10463;52.378;9.688;2022-09-21T17:47:09;30.00;26.70
20610;DHT22;10463;52.378;9.688;2022-09-21T17:50:00;30.00;26.70
20610;DHT22;10463;52.378;9.688;2022-09-21T17:52:46;30.00;26.70
20610;DHT22;10463;52.378;9.688;2022-09-21T17:55:57;29.90;26.70
20610;DHT22;10463;52.378;9.688;2022-09-21T17:58:49;29.90;26.70
20610;DHT22;10463;52.378;9.688;2022-09-21T18:01:38;29.90;26.70
20610;DHT22;10463;52.378;9.688;2022-09-21T18:04:24;29.90;26.70
20610;DHT22;10463;52.378;9.688;2022-09-21T18:07:11;29.90;26.80
20610;DHT22;10463;52.378;9.688;2022-09-21T18:09:57;29.80;26.70
20610;DHT22;10463;52.378;9.688;2022-09-21T18:13:05;29.90;26.80
20610;DHT22;10463;52.378;9.688;2022-09-21T18:16:21;29.80;26.80
20610;DHT22;10463;52.378;9.688;2022-09-21T18:19:43;29.80;26.80